sensor_id;sensor_type;location;lat;lon;timestamp;pressure;altitude;pressure_sealevel;temperature;humidity
64340;BME280;63709;53.258;-8.814;2023-04-12T00:01:35;98990.19;;;7.86;100.00
64340;BME280;63709;53.258;-8.814;2023-04-12T00:04:01;98981.94;;;7.98;100.00
64340;BME280;63709;53.258;-8.814;2023-04-12T00:06:30;98974.81;;;7.89;100.00
64340;BME280;63709;53.258;-8.814;2023-04-12T00:09:00;98968.94;;;7.95;100.00
64340;BME280;63709;53.258;-8.814;2023-04-12T00:11:30;98965.94;;;8.08;100.00
64340;BME280;63709;53.258;-8.814;2023-04-12T00:13:56;98956.66;;;8.22;100.00
64340;BME280;63709;53.258;-8.814;2023-04-12T00:16:22;98942.72;;;8.10;100.00
64340;BME280;63709;53.258;-8.814;2023-04-12T00:18:50;98957.94;;;8.18;100.00
64340;BME280;63709;53.258;-8.814;2023-04-12T00:21:16;98961.44;;;8.18;100.00
64340;BME280;63709;53.258;-8.814;2023-04-12T00:23:47;98961.97;;;8.22;100.00
64340;BME280;63709;53.258;-8.814;2023-04-12T00:26:15;98949.31;;;8.16;100.00
64340;BME280;63709;53.258;-8.814;2023-04-12T00:28:41;98957.28;;;8.16;100.00
64340;BME280;63709;53.258;-8.814;2023-04-12T00:31:07;98942.72;;;8.20;100.00
64340;BME280;63709;53.258;-8.814;2023-04-12T00:33:33;98948.97;;;8.19;100.00
64340;BME280;63709;53.258;-8.814;2023-04-12T00:36:00;98940.59;;;8.23;100.00
64340;BME280;63709;53.258;-8.814;2023-04-12T00:38:26;98934.88;;;8.18;100.00
64340;BME280;63709;53.258;-8.814;2023-04-12T00:40:51;98927.31;;;8.23;100.00
64340;BME280;63709;53.258;-8.814;2023-04-12T00:43:18;98919.00;;;8.27;100.00
64340;BME280;63709;53.258;-8.814;2023-04-12T00:45:46;98900.47;;;8.17;100.00
64340;BME280;63709;53.258;-8.814;2023-04-12T00:48:12;98902.44;;;8.15;100.00
64340;BME280;63709;53.258;-8.814;2023-04-12T00:50:39;98880.34;;;8.14;100.00
64340;BME280;63709;53.258;-8.814;2023-04-12T00:53:06;98877.59;;;8.06;100.00
64340;BME280;63709;53.258;-8.814;2023-04-12T00:55:34;98877.88;;;8.03;100.00
64340;BME280;63709;53.258;-8.814;2023-04-12T00:58:00;98868.09;;;8.04;100.00
64340;BME280;63709;53.258;-8.814;2023-04-12T01:00:26;98863.75;;;8.03;100.00
64340;BME280;63709;53.258;-8.814;2023-04-12T01:02:52;98860.41;;;8.00;100.00
64340;BME280;63709;53.258;-8.814;2023-04-12T01:05:21;98835.59;;;7.82;100.00
64340;BME280;63709;53.258;-8.814;2023-04-12T01:10:37;98844.13;;;7.86;100.00
64340;BME280;63709;53.258;-8.814;2023-04-12T01:13:11;98818.44;;;7.86;100.00
64340;BME280;63709;53.258;-8.814;2023-04-12T01:15:53;98820.13;;;7.78;100.00
64340;BME280;63709;53.258;-8.814;2023-04-12T01:18:21;98798.34;;;7.74;100.00
64340;BME280;63709;53.258;-8.814;2023-04-12T01:21:04;98819.31;;;7.67;100.00
64340;BME280;63709;53.258;-8.814;2023-04-12T01:26:46;98830.38;;;7.63;100.00
64340;BME280;63709;53.258;-8.814;2023-04-12T01:29:20;98819.81;;;7.53;100.00
64340;BME280;63709;53.258;-8.814;2023-04-12T01:31:53;98784.53;;;7.33;100.00
64340;BME280;63709;53.258;-8.814;2023-04-12T01:34:22;98809.56;;;7.21;100.00
64340;BME280;63709;53.258;-8.814;2023-04-12T01:36:50;98790.91;;;7.13;100.00
64340;BME280;63709;53.258;-8.814;2023-04-12T01:39:16;98784.47;;;7.06;100.00
64340;BME280;63709;53.258;-8.814;2023-04-12T01:41:42;98780.56;;;7.00;100.00
64340;BME280;63709;53.258;-8.814;2023-04-12T01:44:14;98776.56;;;6.86;100.00
64340;BME280;63709;53.258;-8.814;2023-04-12T01:46:42;98753.81;;;6.74;100.00
64340;BME280;63709;53.258;-8.814;2023-04-12T01:49:09;98738.06;;;6.63;100.00
64340;BME280;63709;53.258;-8.814;2023-04-12T01:51:52;98718.56;;;6.64;100.00
64340;BME280;63709;53.258;-8.814;2023-04-12T01:54:27;98716.59;;;6.56;100.00
64340;BME280;63709;53.258;-8.814;2023-04-12T01:56:58;98673.69;;;6.43;100.00
64340;BME280;63709;53.258;-8.814;2023-04-12T01:59:43;98681.03;;;6.59;100.00
64340;BME280;63709;53.258;-8.814;2023-04-12T02:02:10;98687.59;;;6.54;100.00
64340;BME280;63709;53.258;-8.814;2023-04-12T02:04:37;98702.78;;;6.62;100.00
64340;BME280;63709;53.258;-8.814;2023-04-12T02:07:04;98674.09;;;6.48;100.00
64340;BME280;63709;53.258;-8.814;2023-04-12T02:09:35;98711.03;;;6.69;100.00
64340;BME280;63709;53.258;-8.814;2023-04-12T02:12:06;98698.72;;;6.77;100.00
64340;BME280;63709;53.258;-8.814;2023-04-12T02:14:32;98698.44;;;6.71;100.00
64340;BME280;63709;53.258;-8.814;2023-04-12T02:16:58;98702.50;;;6.65;100.00
64340;BME280;63709;53.258;-8.814;2023-04-12T02:19:26;98692.56;;;6.77;100.00
64340;BME280;63709;53.258;-8.814;2023-04-12T02:21:52;98660.59;;;6.78;100.00
64340;BME280;63709;53.258;-8.814;2023-04-12T02:24:18;98630.84;;;6.57;100.00
64340;BME280;63709;53.258;-8.814;2023-04-12T02:26:44;98647.97;;;6.63;100.00
64340;BME280;63709;53.258;-8.814;2023-04-12T02:29:10;98636.94;;;6.67;100.00
64340;BME280;63709;53.258;-8.814;2023-04-12T02:31:37;98629.28;;;6.64;100.00
64340;BME280;63709;53.258;-8.814;2023-04-12T02:34:04;98616.63;;;6.48;100.00
64340;BME280;63709;53.258;-8.814;2023-04-12T02:36:30;98609.53;;;6.49;100.00
64340;BME280;63709;53.258;-8.814;2023-04-12T02:38:57;98603.16;;;6.32;100.00
64340;BME280;63709;53.258;-8.814;2023-04-12T02:41:23;98605.38;;;6.37;100.00
64340;BME280;63709;53.258;-8.814;2023-04-12T02:43:50;98575.56;;;6.15;100.00
64340;BME280;63709;53.258;-8.814;2023-04-12T02:46:22;98584.50;;;6.24;100.00
64340;BME280;63709;53.258;-8.814;2023-04-12T02:48:49;98542.97;;;6.15;100.00
64340;BME280;63709;53.258;-8.814;2023-04-12T02:51:16;98549.63;;;6.19;100.00
64340;BME280;63709;53.258;-8.814;2023-04-12T02:53:42;98524.03;;;6.10;100.00
64340;BME280;63709;53.258;-8.814;2023-04-12T02:56:08;98515.88;;;5.93;100.00
64340;BME280;63709;53.258;-8.814;2023-04-12T02:58:35;98512.78;;;5.98;100.00
64340;BME280;63709;53.258;-8.814;2023-04-12T03:01:02;98515.28;;;5.90;100.00
64340;BME280;63709;53.258;-8.814;2023-04-12T03:03:33;98517.06;;;6.09;100.00
64340;BME280;63709;53.258;-8.814;2023-04-12T03:06:00;98500.66;;;5.95;100.00
64340;BME280;63709;53.258;-8.814;2023-04-12T03:08:26;98477.38;;;5.99;100.00
64340;BME280;63709;53.258;-8.814;2023-04-12T03:10:51;98456.88;;;5.91;100.00
64340;BME280;63709;53.258;-8.814;2023-04-12T03:13:17;98468.28;;;6.11;100.00
64340;BME280;63709;53.258;-8.814;2023-04-12T03:15:42;98463.25;;;6.18;100.00
64340;BME280;63709;53.258;-8.814;2023-04-12T03:18:08;98434.44;;;6.05;100.00
64340;BME280;63709;53.258;-8.814;2023-04-12T03:20:36;98452.66;;;6.18;100.00
64340;BME280;63709;53.258;-8.814;2023-04-12T03:23:03;98421.50;;;6.02;100.00
64340;BME280;63709;53.258;-8.814;2023-04-12T03:25:29;98404.19;;;6.07;100.00
64340;BME280;63709;53.258;-8.814;2023-04-12T03:27:55;98375.25;;;5.96;100.00
64340;BME280;63709;53.258;-8.814;2023-04-12T03:30:22;98366.47;;;5.96;100.00
64340;BME280;63709;53.258;-8.814;2023-04-12T03:32:47;98347.94;;;5.96;100.00
64340;BME280;63709;53.258;-8.814;2023-04-12T03:35:14;98321.72;;;5.75;100.00
64340;BME280;63709;53.258;-8.814;2023-04-12T03:37:41;98319.00;;;5.85;100.00
64340;BME280;63709;53.258;-8.814;2023-04-12T03:40:07;98288.91;;;5.86;100.00
64340;BME280;63709;53.258;-8.814;2023-04-12T03:42:34;98300.72;;;5.91;100.00
64340;BME280;63709;53.258;-8.814;2023-04-12T03:45:00;98280.13;;;5.95;100.00
64340;BME280;63709;53.258;-8.814;2023-04-12T03:47:26;98261.22;;;6.07;100.00
64340;BME280;63709;53.258;-8.814;2023-04-12T03:49:55;98242.97;;;6.22;100.00
64340;BME280;63709;53.258;-8.814;2023-04-12T03:52:26;98242.56;;;6.27;100.00
64340;BME280;63709;53.258;-8.814;2023-04-12T03:54:52;98236.72;;;6.23;100.00
64340;BME280;63709;53.258;-8.814;2023-04-12T03:57:18;98217.03;;;6.26;100.00
64340;BME280;63709;53.258;-8.814;2023-04-12T03:59:44;98210.66;;;6.37;100.00
64340;BME280;63709;53.258;-8.814;2023-04-12T04:02:09;98185.94;;;6.28;100.00
64340;BME280;63709;53.258;-8.814;2023-04-12T04:04:36;98177.75;;;6.39;100.00
64340;BME280;63709;53.258;-8.814;2023-04-12T04:07:02;98164.97;;;6.35;100.00
64340;BME280;63709;53.258;-8.814;2023-04-12T04:09:29;98159.78;;;6.51;100.00
64340;BME280;63709;53.258;-8.814;2023-04-12T04:11:55;98139.38;;;6.43;100.00
64340;BME280;63709;53.258;-8.814;2023-04-12T04:14:21;98142.38;;;6.48;100.00
64340;BME280;63709;53.258;-8.814;2023-04-12T04:16:47;98115.19;;;6.38;100.00
64340;BME280;63709;53.258;-8.814;2023-04-12T04:19:13;98116.31;;;6.62;100.00
64340;BME280;63709;53.258;-8.814;2023-04-12T04:21:38;98107.81;;;6.50;100.00
64340;BME280;63709;53.258;-8.814;2023-04-12T04:24:09;98101.72;;;6.58;100.00
64340;BME280;63709;53.258;-8.814;2023-04-12T04:26:36;98086.38;;;6.43;100.00
64340;BME280;63709;53.258;-8.814;2023-04-12T04:29:02;98083.66;;;6.53;100.00
64340;BME280;63709;53.258;-8.814;2023-04-12T04:31:30;98069.44;;;6.62;100.00
64340;BME280;63709;53.258;-8.814;2023-04-12T04:34:02;98077.91;;;6.66;100.00
64340;BME280;63709;53.258;-8.814;2023-04-12T04:36:34;98067.34;;;6.74;100.00
64340;BME280;63709;53.258;-8.814;2023-04-12T04:39:00;98064.66;;;6.66;100.00
64340;BME280;63709;53.258;-8.814;2023-04-12T04:41:26;98057.41;;;6.76;100.00
64340;BME280;63709;53.258;-8.814;2023-04-12T04:43:52;98036.56;;;6.81;100.00
64340;BME280;63709;53.258;-8.814;2023-04-12T04:46:19;98037.44;;;6.90;100.00
64340;BME280;63709;53.258;-8.814;2023-04-12T04:48:50;98035.44;;;6.92;100.00
64340;BME280;63709;53.258;-8.814;2023-04-12T04:51:19;98027.34;;;7.01;100.00
64340;BME280;63709;53.258;-8.814;2023-04-12T04:53:45;98025.22;;;7.05;100.00
64340;BME280;63709;53.258;-8.814;2023-04-12T04:56:11;98024.72;;;7.10;100.00
64340;BME280;63709;53.258;-8.814;2023-04-12T04:58:37;98006.41;;;6.82;100.00
64340;BME280;63709;53.258;-8.814;2023-04-12T05:01:04;98019.13;;;6.78;100.00
64340;BME280;63709;53.258;-8.814;2023-04-12T05:03:30;98012.38;;;6.76;100.00
64340;BME280;63709;53.258;-8.814;2023-04-12T05:06:00;98016.38;;;6.88;100.00
64340;BME280;63709;53.258;-8.814;2023-04-12T05:08:27;98018.16;;;6.71;100.00
64340;BME280;63709;53.258;-8.814;2023-04-12T05:10:55;98020.84;;;6.88;100.00
64340;BME280;63709;53.258;-8.814;2023-04-12T05:13:24;97997.94;;;6.78;100.00
64340;BME280;63709;53.258;-8.814;2023-04-12T05:15:50;97998.81;;;6.87;100.00
64340;BME280;63709;53.258;-8.814;2023-04-12T05:18:15;98000.75;;;6.69;100.00
64340;BME280;63709;53.258;-8.814;2023-04-12T05:20:43;98009.53;;;6.77;100.00
64340;BME280;63709;53.258;-8.814;2023-04-12T05:23:09;97996.81;;;6.89;100.00
64340;BME280;63709;53.258;-8.814;2023-04-12T05:25:35;98004.38;;;6.68;100.00
64340;BME280;63709;53.258;-8.814;2023-04-12T05:28:02;98023.13;;;6.40;100.00
64340;BME280;63709;53.258;-8.814;2023-04-12T05:30:28;98011.09;;;6.46;100.00
64340;BME280;63709;53.258;-8.814;2023-04-12T05:32:53;98006.66;;;6.63;100.00
64340;BME280;63709;53.258;-8.814;2023-04-12T05:35:19;98007.50;;;6.63;100.00
64340;BME280;63709;53.258;-8.814;2023-04-12T05:37:45;98001.97;;;6.48;100.00
64340;BME280;63709;53.258;-8.814;2023-04-12T05:40:11;98003.31;;;6.52;100.00
64340;BME280;63709;53.258;-8.814;2023-04-12T05:42:39;98010.13;;;6.55;100.00
64340;BME280;63709;53.258;-8.814;2023-04-12T05:45:07;98001.31;;;6.46;100.00
64340;BME280;63709;53.258;-8.814;2023-04-12T05:47:35;98006.81;;;6.53;100.00
64340;BME280;63709;53.258;-8.814;2023-04-12T05:50:03;98030.50;;;6.54;100.00
64340;BME280;63709;53.258;-8.814;2023-04-12T05:52:29;98033.38;;;6.69;100.00
64340;BME280;63709;53.258;-8.814;2023-04-12T05:54:54;98038.25;;;6.56;100.00
64340;BME280;63709;53.258;-8.814;2023-04-12T05:57:21;98028.94;;;6.44;100.00
64340;BME280;63709;53.258;-8.814;2023-04-12T05:59:47;98034.66;;;6.57;100.00
64340;BME280;63709;53.258;-8.814;2023-04-12T06:02:13;98015.75;;;6.26;100.00
64340;BME280;63709;53.258;-8.814;2023-04-12T06:04:39;98030.97;;;6.50;100.00
64340;BME280;63709;53.258;-8.814;2023-04-12T06:07:05;98051.75;;;6.37;100.00
64340;BME280;63709;53.258;-8.814;2023-04-12T06:09:32;98055.81;;;6.49;100.00
64340;BME280;63709;53.258;-8.814;2023-04-12T06:11:58;98066.66;;;6.38;100.00
64340;BME280;63709;53.258;-8.814;2023-04-12T06:14:24;98045.69;;;6.52;100.00
64340;BME280;63709;53.258;-8.814;2023-04-12T06:16:50;98050.84;;;6.54;100.00
64340;BME280;63709;53.258;-8.814;2023-04-12T06:19:17;98074.44;;;6.39;100.00
64340;BME280;63709;53.258;-8.814;2023-04-12T06:21:45;98078.47;;;6.51;100.00
64340;BME280;63709;53.258;-8.814;2023-04-12T06:24:11;98089.88;;;6.44;100.00
64340;BME280;63709;53.258;-8.814;2023-04-12T06:26:36;98102.25;;;6.35;100.00
64340;BME280;63709;53.258;-8.814;2023-04-12T06:29:05;98111.22;;;6.42;100.00
64340;BME280;63709;53.258;-8.814;2023-04-12T06:31:32;98132.22;;;6.62;100.00
64340;BME280;63709;53.258;-8.814;2023-04-12T06:33:58;98142.19;;;6.68;100.00
64340;BME280;63709;53.258;-8.814;2023-04-12T06:36:25;98151.22;;;6.83;100.00
64340;BME280;63709;53.258;-8.814;2023-04-12T06:38:51;98144.75;;;6.86;100.00
64340;BME280;63709;53.258;-8.814;2023-04-12T06:41:17;98147.78;;;6.91;100.00
64340;BME280;63709;53.258;-8.814;2023-04-12T06:43:44;98164.66;;;7.16;100.00
64340;BME280;63709;53.258;-8.814;2023-04-12T06:46:11;98152.56;;;7.21;100.00
64340;BME280;63709;53.258;-8.814;2023-04-12T06:48:36;98152.38;;;7.23;100.00
64340;BME280;63709;53.258;-8.814;2023-04-12T06:51:02;98171.69;;;7.41;100.00
64340;BME280;63709;53.258;-8.814;2023-04-12T06:53:28;98190.59;;;7.38;100.00
64340;BME280;63709;53.258;-8.814;2023-04-12T06:55:55;98198.03;;;7.35;100.00
64340;BME280;63709;53.258;-8.814;2023-04-12T06:58:21;98201.22;;;7.38;100.00
64340;BME280;63709;53.258;-8.814;2023-04-12T07:00:48;98212.28;;;7.34;100.00
64340;BME280;63709;53.258;-8.814;2023-04-12T07:03:15;98222.97;;;7.50;100.00
64340;BME280;63709;53.258;-8.814;2023-04-12T07:05:41;98230.53;;;7.37;100.00
64340;BME280;63709;53.258;-8.814;2023-04-12T07:08:07;98239.84;;;7.41;100.00
64340;BME280;63709;53.258;-8.814;2023-04-12T07:10:34;98261.69;;;7.61;100.00
64340;BME280;63709;53.258;-8.814;2023-04-12T07:13:00;98266.03;;;7.78;100.00
64340;BME280;63709;53.258;-8.814;2023-04-12T07:15:28;98260.72;;;7.78;100.00
64340;BME280;63709;53.258;-8.814;2023-04-12T07:17:53;98256.72;;;7.74;100.00
64340;BME280;63709;53.258;-8.814;2023-04-12T07:20:20;98285.28;;;7.72;100.00
64340;BME280;63709;53.258;-8.814;2023-04-12T07:22:46;98289.84;;;7.96;100.00
64340;BME280;63709;53.258;-8.814;2023-04-12T07:25:12;98287.84;;;7.90;100.00
64340;BME280;63709;53.258;-8.814;2023-04-12T07:27:39;98281.34;;;7.92;100.00
64340;BME280;63709;53.258;-8.814;2023-04-12T07:30:05;98280.22;;;7.95;100.00
64340;BME280;63709;53.258;-8.814;2023-04-12T07:32:31;98300.66;;;8.11;100.00
64340;BME280;63709;53.258;-8.814;2023-04-12T07:34:56;98314.47;;;8.14;100.00
64340;BME280;63709;53.258;-8.814;2023-04-12T07:37:22;98301.97;;;7.98;100.00
64340;BME280;63709;53.258;-8.814;2023-04-12T07:39:47;98298.50;;;8.06;100.00
64340;BME280;63709;53.258;-8.814;2023-04-12T07:42:13;98319.63;;;8.16;100.00
64340;BME280;63709;53.258;-8.814;2023-04-12T07:44:40;98335.94;;;8.29;100.00
64340;BME280;63709;53.258;-8.814;2023-04-12T07:47:08;98331.84;;;8.43;100.00
64340;BME280;63709;53.258;-8.814;2023-04-12T07:49:35;98318.69;;;8.41;100.00
64340;BME280;63709;53.258;-8.814;2023-04-12T07:52:02;98346.16;;;8.66;100.00
64340;BME280;63709;53.258;-8.814;2023-04-12T07:54:28;98334.03;;;8.64;100.00
64340;BME280;63709;53.258;-8.814;2023-04-12T07:57:00;98351.97;;;8.45;100.00
64340;BME280;63709;53.258;-8.814;2023-04-12T07:59:26;98345.00;;;8.69;100.00
64340;BME280;63709;53.258;-8.814;2023-04-12T08:01:52;98353.31;;;8.82;100.00
64340;BME280;63709;53.258;-8.814;2023-04-12T08:04:19;98372.94;;;8.81;100.00
64340;BME280;63709;53.258;-8.814;2023-04-12T08:06:45;98376.75;;;8.79;100.00
64340;BME280;63709;53.258;-8.814;2023-04-12T08:09:11;98377.28;;;8.90;100.00
64340;BME280;63709;53.258;-8.814;2023-04-12T08:11:37;98368.47;;;8.90;100.00
64340;BME280;63709;53.258;-8.814;2023-04-12T08:14:02;98365.47;;;8.93;100.00
64340;BME280;63709;53.258;-8.814;2023-04-12T08:16:29;98377.44;;;8.97;100.00
64340;BME280;63709;53.258;-8.814;2023-04-12T08:18:55;98389.25;;;9.19;100.00
64340;BME280;63709;53.258;-8.814;2023-04-12T08:21:21;98393.25;;;9.23;100.00
64340;BME280;63709;53.258;-8.814;2023-04-12T08:23:47;98360.31;;;9.32;100.00
64340;BME280;63709;53.258;-8.814;2023-04-12T08:26:15;98375.25;;;9.58;100.00
64340;BME280;63709;53.258;-8.814;2023-04-12T08:28:41;98358.06;;;9.77;100.00
64340;BME280;63709;53.258;-8.814;2023-04-12T08:31:07;98371.66;;;9.98;100.00
64340;BME280;63709;53.258;-8.814;2023-04-12T08:33:56;98399.75;;;10.17;100.00
64340;BME280;63709;53.258;-8.814;2023-04-12T08:36:24;98322.69;;;9.99;100.00
64340;BME280;63709;53.258;-8.814;2023-04-12T08:38:50;98344.94;;;10.14;100.00
64340;BME280;63709;53.258;-8.814;2023-04-12T08:41:17;98404.59;;;10.61;100.00
64340;BME280;63709;53.258;-8.814;2023-04-12T08:43:49;98405.56;;;10.60;100.00
64340;BME280;63709;53.258;-8.814;2023-04-12T08:46:16;98381.00;;;10.41;100.00
64340;BME280;63709;53.258;-8.814;2023-04-12T08:48:49;98328.31;;;10.04;100.00
64340;BME280;63709;53.258;-8.814;2023-04-12T08:51:18;98324.97;;;10.10;100.00
64340;BME280;63709;53.258;-8.814;2023-04-12T08:53:43;98398.09;;;10.55;100.00
64340;BME280;63709;53.258;-8.814;2023-04-12T08:56:11;98384.84;;;10.39;100.00
64340;BME280;63709;53.258;-8.814;2023-04-12T08:58:43;98411.44;;;10.55;100.00
64340;BME280;63709;53.258;-8.814;2023-04-12T09:01:14;98396.13;;;10.49;100.00
64340;BME280;63709;53.258;-8.814;2023-04-12T09:03:44;98402.66;;;10.47;100.00
64340;BME280;63709;53.258;-8.814;2023-04-12T09:06:12;98392.81;;;10.47;100.00
64340;BME280;63709;53.258;-8.814;2023-04-12T09:08:57;98367.03;;;10.39;100.00
64340;BME280;63709;53.258;-8.814;2023-04-12T09:11:26;98362.72;;;10.30;100.00
64340;BME280;63709;53.258;-8.814;2023-04-12T09:13:56;98345.72;;;10.23;100.00
64340;BME280;63709;53.258;-8.814;2023-04-12T09:16:39;98418.69;;;10.70;100.00
64340;BME280;63709;53.258;-8.814;2023-04-12T09:19:07;98380.97;;;10.50;100.00
64340;BME280;63709;53.258;-8.814;2023-04-12T09:21:33;98397.53;;;10.68;100.00
64340;BME280;63709;53.258;-8.814;2023-04-12T09:24:09;98407.00;;;10.71;100.00
64340;BME280;63709;53.258;-8.814;2023-04-12T09:26:37;98419.81;;;10.75;100.00
64340;BME280;63709;53.258;-8.814;2023-04-12T09:29:03;98390.94;;;10.56;100.00
64340;BME280;63709;53.258;-8.814;2023-04-12T09:31:30;98415.81;;;10.79;100.00
64340;BME280;63709;53.258;-8.814;2023-04-12T09:34:06;98405.91;;;10.65;100.00
64340;BME280;63709;53.258;-8.814;2023-04-12T09:36:40;98409.19;;;10.67;100.00
64340;BME280;63709;53.258;-8.814;2023-04-12T09:39:06;98378.47;;;10.48;100.00
64340;BME280;63709;53.258;-8.814;2023-04-12T09:41:35;98380.25;;;10.56;100.00
64340;BME280;63709;53.258;-8.814;2023-04-12T09:44:02;98393.53;;;10.64;100.00
64340;BME280;63709;53.258;-8.814;2023-04-12T09:46:28;98392.41;;;10.58;100.00
64340;BME280;63709;53.258;-8.814;2023-04-12T09:48:57;98424.03;;;10.70;100.00
64340;BME280;63709;53.258;-8.814;2023-04-12T09:51:28;98401.78;;;10.54;100.00
64340;BME280;63709;53.258;-8.814;2023-04-12T09:54:23;98394.41;;;10.25;100.00
64340;BME280;63709;53.258;-8.814;2023-04-12T09:56:56;98386.06;;;10.28;100.00
64340;BME280;63709;53.258;-8.814;2023-04-12T09:59:34;98450.47;;;10.48;100.00
64340;BME280;63709;53.258;-8.814;2023-04-12T10:02:18;98422.75;;;10.10;100.00
64340;BME280;63709;53.258;-8.814;2023-04-12T10:04:55;98466.88;;;10.21;100.00
64340;BME280;63709;53.258;-8.814;2023-04-12T10:07:56;98490.53;;;10.32;100.00
64340;BME280;63709;53.258;-8.814;2023-04-12T10:10:22;98460.72;;;10.04;100.00
64340;BME280;63709;53.258;-8.814;2023-04-12T10:13:13;98514.72;;;10.06;100.00
64340;BME280;63709;53.258;-8.814;2023-04-12T10:15:56;98505.50;;;10.25;100.00
64340;BME280;63709;53.258;-8.814;2023-04-12T10:18:25;98468.56;;;9.97;100.00
64340;BME280;63709;53.258;-8.814;2023-04-12T10:20:53;98439.31;;;9.73;100.00
64340;BME280;63709;53.258;-8.814;2023-04-12T10:23:19;98470.09;;;9.83;100.00
64340;BME280;63709;53.258;-8.814;2023-04-12T10:25:47;98515.34;;;10.08;100.00
64340;BME280;63709;53.258;-8.814;2023-04-12T10:28:14;98540.19;;;10.16;100.00
64340;BME280;63709;53.258;-8.814;2023-04-12T10:30:43;98532.00;;;10.18;100.00
64340;BME280;63709;53.258;-8.814;2023-04-12T10:36:08;98552.31;;;10.19;100.00
64340;BME280;63709;53.258;-8.814;2023-04-12T10:38:47;98511.41;;;9.87;100.00
64340;BME280;63709;53.258;-8.814;2023-04-12T10:41:32;98547.19;;;10.26;100.00
64340;BME280;63709;53.258;-8.814;2023-04-12T10:44:25;98556.50;;;10.30;100.00
64340;BME280;63709;53.258;-8.814;2023-04-12T10:46:54;98551.50;;;10.10;100.00
64340;BME280;63709;53.258;-8.814;2023-04-12T10:49:19;98571.97;;;10.34;100.00
64340;BME280;63709;53.258;-8.814;2023-04-12T10:54:30;98578.00;;;10.28;100.00
64340;BME280;63709;53.258;-8.814;2023-04-12T10:56:56;98565.00;;;10.33;100.00
64340;BME280;63709;53.258;-8.814;2023-04-12T11:02:22;98542.81;;;10.25;100.00
64340;BME280;63709;53.258;-8.814;2023-04-12T11:07:44;98607.59;;;10.66;100.00
64340;BME280;63709;53.258;-8.814;2023-04-12T11:10:15;98659.31;;;10.57;100.00
64340;BME280;63709;53.258;-8.814;2023-04-12T11:13:18;98637.13;;;10.48;100.00
64340;BME280;63709;53.258;-8.814;2023-04-12T11:15:46;98630.13;;;10.55;100.00
64340;BME280;63709;53.258;-8.814;2023-04-12T11:18:14;98599.84;;;10.32;100.00
64340;BME280;63709;53.258;-8.814;2023-04-12T11:20:46;98616.31;;;10.44;100.00
64340;BME280;63709;53.258;-8.814;2023-04-12T11:23:12;98619.84;;;10.28;100.00
64340;BME280;63709;53.258;-8.814;2023-04-12T11:25:39;98672.47;;;10.58;100.00
64340;BME280;63709;53.258;-8.814;2023-04-12T11:28:06;98652.16;;;10.57;100.00
64340;BME280;63709;53.258;-8.814;2023-04-12T11:30:55;98699.59;;;10.95;100.00
64340;BME280;63709;53.258;-8.814;2023-04-12T11:33:34;98702.13;;;10.88;100.00
64340;BME280;63709;53.258;-8.814;2023-04-12T11:36:11;98678.31;;;10.62;100.00
64340;BME280;63709;53.258;-8.814;2023-04-12T11:38:46;98721.25;;;11.08;100.00
64340;BME280;63709;53.258;-8.814;2023-04-12T11:41:16;98708.94;;;10.99;100.00
64340;BME280;63709;53.258;-8.814;2023-04-12T11:43:50;98761.44;;;11.23;100.00
64340;BME280;63709;53.258;-8.814;2023-04-12T11:46:32;98750.47;;;10.85;100.00
64340;BME280;63709;53.258;-8.814;2023-04-12T11:49:01;98758.94;;;11.29;100.00
64340;BME280;63709;53.258;-8.814;2023-04-12T11:51:43;98787.25;;;11.55;100.00
64340;BME280;63709;53.258;-8.814;2023-04-12T11:54:15;98754.59;;;11.28;100.00
64340;BME280;63709;53.258;-8.814;2023-04-12T11:56:43;98789.19;;;11.69;100.00
64340;BME280;63709;53.258;-8.814;2023-04-12T11:59:29;98804.06;;;11.72;100.00
64340;BME280;63709;53.258;-8.814;2023-04-12T12:02:07;98761.47;;;11.70;100.00
64340;BME280;63709;53.258;-8.814;2023-04-12T12:04:51;98764.31;;;11.60;100.00
64340;BME280;63709;53.258;-8.814;2023-04-12T12:07:33;98771.41;;;11.37;100.00
64340;BME280;63709;53.258;-8.814;2023-04-12T12:10:08;98861.50;;;11.84;100.00
64340;BME280;63709;53.258;-8.814;2023-04-12T12:12:42;98834.72;;;11.20;100.00
64340;BME280;63709;53.258;-8.814;2023-04-12T12:15:14;98813.84;;;11.24;100.00
64340;BME280;63709;53.258;-8.814;2023-04-12T12:17:40;98881.09;;;11.35;100.00
64340;BME280;63709;53.258;-8.814;2023-04-12T12:20:23;98871.06;;;11.37;100.00
64340;BME280;63709;53.258;-8.814;2023-04-12T12:23:33;98858.91;;;11.43;100.00
64340;BME280;63709;53.258;-8.814;2023-04-12T12:26:04;98906.78;;;11.69;100.00
64340;BME280;63709;53.258;-8.814;2023-04-12T12:28:37;98896.59;;;11.65;100.00
64340;BME280;63709;53.258;-8.814;2023-04-12T12:31:09;98941.97;;;11.97;100.00
64340;BME280;63709;53.258;-8.814;2023-04-12T12:34:12;98894.44;;;11.52;100.00
64340;BME280;63709;53.258;-8.814;2023-04-12T12:36:42;98970.72;;;11.71;100.00
64340;BME280;63709;53.258;-8.814;2023-04-12T12:39:10;98943.69;;;11.66;100.00
64340;BME280;63709;53.258;-8.814;2023-04-12T12:42:10;98967.25;;;11.54;100.00
64340;BME280;63709;53.258;-8.814;2023-04-12T12:44:46;98929.19;;;11.27;100.00
64340;BME280;63709;53.258;-8.814;2023-04-12T12:47:12;98912.81;;;10.98;100.00
64340;BME280;63709;53.258;-8.814;2023-04-12T12:49:38;98923.81;;;11.03;100.00
64340;BME280;63709;53.258;-8.814;2023-04-12T12:52:04;99031.69;;;11.43;100.00
64340;BME280;63709;53.258;-8.814;2023-04-12T12:54:33;98970.72;;;11.22;100.00
64340;BME280;63709;53.258;-8.814;2023-04-12T12:57:00;99028.34;;;11.49;100.00
64340;BME280;63709;53.258;-8.814;2023-04-12T12:59:26;99023.28;;;11.13;100.00
64340;BME280;63709;53.258;-8.814;2023-04-12T13:01:58;98984.38;;;11.02;100.00
64340;BME280;63709;53.258;-8.814;2023-04-12T13:04:23;99015.63;;;11.34;100.00
64340;BME280;63709;53.258;-8.814;2023-04-12T13:06:53;99056.06;;;11.56;100.00
64340;BME280;63709;53.258;-8.814;2023-04-12T13:09:30;99034.00;;;11.37;100.00
64340;BME280;63709;53.258;-8.814;2023-04-12T13:11:56;99008.16;;;11.46;100.00
64340;BME280;63709;53.258;-8.814;2023-04-12T13:14:23;98991.13;;;11.39;100.00
64340;BME280;63709;53.258;-8.814;2023-04-12T13:16:56;98989.28;;;11.31;100.00